Helen B Moran — WCL5699 — position and weather

sailwx.info

Track history (hours):
 
Tides and Currents Weather Stations Pressure Air Temp Water Temp Dewpoint Dewpoint Depression Visibility Wind Speed Wind Dir Waves Ship Positions

Helen B Moran

Owner: Moran Towing Corporation, New Cannan, CT. More information available from US FCC via Universal Licensing System and Coast Guard Vessel Documentation Center.

Last reported at 2018-Feb-18 19:59 UTC. Time now 2018-Feb-18 20:27 UTC.
Position N 29°58' W 093°51'.

Length 32 m; draft 4.9 m.

Type: Towing. MMSI: 366967360.

Date/timePositionNaut miles runAvg speedWind from/ knotsBaromVisibWave heightAir tempDewpointWater temp
2018-Feb-18 19:59N 29°58' W 093°51'0 0.0
2018-Feb-18 19:30N 29°58' W 093°51'5 9.3
2018-Feb-18 19:00N 29°60' W 093°56'2 3.6
2018-Feb-18 18:30N 30°01' W 093°58'0 0.0
2018-Feb-18 18:00N 30°01' W 093°58'0 0.0
2018-Feb-18 17:30N 30°01' W 093°58'2 3.8
2018-Feb-18 17:00N 29°60' W 093°56'4 8.8
2018-Feb-18 16:30N 29°58' W 093°51'0 0.8
2018-Feb-18 16:00N 29°58' W 093°51'0 0.0
2018-Feb-18 15:30N 29°58' W 093°51'0 0.0
2018-Feb-18 15:00N 29°58' W 093°51'0 0.0
2018-Feb-18 14:29N 29°58' W 093°51'0 0.0
2018-Feb-18 14:00N 29°58' W 093°51'0 0.0
2018-Feb-18 13:30N 29°58' W 093°51'0 0.0
2018-Feb-18 13:00N 29°58' W 093°51'0 0.0
2018-Feb-18 12:30N 29°58' W 093°51'0 0.0
2018-Feb-18 12:00N 29°58' W 093°51'0 0.0
2018-Feb-18 11:30N 29°58' W 093°51'0 0.0
2018-Feb-18 11:00N 29°58' W 093°51'0 0.0
2018-Feb-18 10:30N 29°58' W 093°51'0 0.0
2018-Feb-18 10:00N 29°58' W 093°51'0 0.0
2018-Feb-18 09:30N 29°58' W 093°51'0 0.0
2018-Feb-18 09:00N 29°58' W 093°51'0 0.0
2018-Feb-18 08:30N 29°58' W 093°51'0 0.0
2018-Feb-18 08:00N 29°58' W 093°51'0 0.0
2018-Feb-18 07:30N 29°58' W 093°51'0 0.0
2018-Feb-18 07:00N 29°58' W 093°51'0 0.0
2018-Feb-18 06:30N 29°58' W 093°51'0 0.0
2018-Feb-18 06:00N 29°58' W 093°51'0 0.0
2018-Feb-18 05:30N 29°58' W 093°51'0 0.0
2018-Feb-18 04:59N 29°58' W 093°51'0 0.0
2018-Feb-18 04:30N 29°58' W 093°51'0 0.0
2018-Feb-18 04:00N 29°58' W 093°51'0 0.0
2018-Feb-18 03:30N 29°58' W 093°51'0 0.0
2018-Feb-18 03:00N 29°58' W 093°51'0 0.0
2018-Feb-18 02:30N 29°58' W 093°51'0 0.0
2018-Feb-18 02:00N 29°58' W 093°51'0 0.0
2018-Feb-18 01:30N 29°58' W 093°51'0 0.0
2018-Feb-18 01:00N 29°58' W 093°51'0 0.0
2018-Feb-18 00:30N 29°58' W 093°51'4 7.3
2018-Feb-18 00:00N 29°59' W 093°55'4 7.2
2018-Feb-17 23:30N 30°01' W 093°59'0 0.0
2018-Feb-17 22:59N 30°01' W 093°59'0 0.0
2018-Feb-17 22:30N 30°01' W 093°59'0 0.5
2018-Feb-17 22:00N 30°01' W 093°59'0 0.4
2018-Feb-17 21:30N 30°01' W 093°59'1 3.0
2018-Feb-17 21:00N 30°01' W 093°57'4 8.5
2018-Feb-17 20:30N 29°59' W 093°53'1 2.8
2018-Feb-17 20:00N 29°58' W 093°51'0 0.0
2018-Feb-16 22:08N 29°58' W 093°51'0 0.0
2018-Feb-16 22:00N 29°58' W 093°51'0 0.0
2018-Feb-16 21:30N 29°58' W 093°51'1 2.4
2018-Feb-16 21:00N 29°59' W 093°52'5 9.1
2018-Feb-16 20:30N 30°00' W 093°57'4 8.5
2018-Feb-16 20:00N 30°02' W 094°02'0 0.2
2018-Feb-16 19:31N 30°02' W 094°02'0 0.4
2018-Feb-16 19:00N 30°02' W 094°02'1 2.2
2018-Feb-16 18:31N 30°01' W 094°01'4 6.9
2018-Feb-16 18:00N 30°01' W 093°57'1 2.4
2018-Feb-16 17:30N 29°60' W 093°57'0 0.0
2018-Feb-16 17:00N 29°60' W 093°57'0 0.0
2018-Feb-16 16:30N 29°60' W 093°57'0 0.0
2018-Feb-16 16:00N 29°60' W 093°57'0 0.0
2018-Feb-16 15:30N 29°60' W 093°57'0 0.0
2018-Feb-16 15:00N 29°60' W 093°57'0 0.0
2018-Feb-16 14:30N 29°60' W 093°57'0 0.0
2018-Feb-16 14:01N 29°60' W 093°57'0 0.0
2018-Feb-16 13:31N 29°60' W 093°57'0 0.0
2018-Feb-16 13:00N 29°60' W 093°57'0 0.0
2018-Feb-16 12:30N 29°60' W 093°57'0 0.0
2018-Feb-16 12:00N 29°60' W 093°57'0 0.0
2018-Feb-16 11:30N 29°60' W 093°57'0 0.0
2018-Feb-16 11:00N 29°60' W 093°57'0 0.0
2018-Feb-16 10:31N 29°60' W 093°57'0 0.0
2018-Feb-16 10:01N 29°60' W 093°57'0 0.0
2018-Feb-16 09:31N 29°60' W 093°57'0 0.0
2018-Feb-16 09:01N 29°60' W 093°57'0 0.0
2018-Feb-16 08:30N 29°60' W 093°57'0 0.0
2018-Feb-16 08:00N 29°60' W 093°57'0 0.0
2018-Feb-16 07:30N 29°60' W 093°57'0 0.0
2018-Feb-16 07:00N 29°60' W 093°57'0 0.0
2018-Feb-16 06:30N 29°60' W 093°57'0 0.0
2018-Feb-16 06:00N 29°60' W 093°57'0 0.0
2018-Feb-16 05:30N 29°60' W 093°57'0 0.0
2018-Feb-16 05:00N 29°60' W 093°57'0 0.0
2018-Feb-16 04:30N 29°60' W 093°57'0 0.0
2018-Feb-16 04:00N 29°60' W 093°57'0 0.0
2018-Feb-16 03:30N 29°60' W 093°57'0 0.0
2018-Feb-16 03:00N 29°60' W 093°57'0 0.0
2018-Feb-16 02:30N 29°60' W 093°57'0 0.0
2018-Feb-16 02:00N 29°60' W 093°57'0 0.0
2018-Feb-16 01:30N 29°60' W 093°57'0 0.0
2018-Feb-16 01:00N 29°60' W 093°57'0 0.0
2018-Feb-16 00:30N 29°60' W 093°57'0 0.0
2018-Feb-16 00:00N 29°60' W 093°57'0 0.0
2018-Feb-15 23:30N 29°60' W 093°57'0 0.0
2018-Feb-15 23:01N 29°60' W 093°57'0 0.0
2018-Feb-15 22:30N 29°60' W 093°57'0 0.0
2018-Feb-15 22:00N 29°60' W 093°57'0 0.0
2018-Feb-15 21:30N 29°60' W 093°57'0 0.0
2018-Feb-15 21:00N 29°60' W 093°57'0 0.0
2018-Feb-15 20:30N 29°60' W 093°57'0 0.0
2018-Feb-15 20:00N 29°60' W 093°57'0 0.0
2018-Feb-15 19:31N 29°60' W 093°57'0 0.0
2018-Feb-15 19:01N 29°60' W 093°57'0 0.0
2018-Feb-15 18:30N 29°60' W 093°57'0 0.0
2018-Feb-15 18:00N 29°60' W 093°57'0 0.0
2018-Feb-15 17:30N 29°60' W 093°57'0 0.0
2018-Feb-15 17:00N 29°60' W 093°57'0 0.0
2018-Feb-15 16:30N 29°60' W 093°57'0 0.0
2018-Feb-15 16:00N 29°60' W 093°57'0 0.0
2018-Feb-15 15:30N 29°60' W 093°57'0 0.0
2018-Feb-15 15:00N 29°60' W 093°57'0 0.0
2018-Feb-15 14:30N 29°60' W 093°57'0 0.0
2018-Feb-15 14:00N 29°60' W 093°57'0 0.0
2018-Feb-15 13:30N 29°60' W 093°57'0 0.0
2018-Feb-15 13:00N 29°60' W 093°57'0 0.0
2018-Feb-15 12:30N 29°60' W 093°57'0 0.0
2018-Feb-15 12:00N 29°60' W 093°57'0 0.0
2018-Feb-15 11:30N 29°60' W 093°57'0 0.0
2018-Feb-15 11:01N 29°60' W 093°57'0 0.0
2018-Feb-15 10:31N 29°60' W 093°57'0 0.0
2018-Feb-15 10:01N 29°60' W 093°57'0 0.0
2018-Feb-15 09:30N 29°60' W 093°57'0 0.0
2018-Feb-15 09:01N 29°60' W 093°57'0 0.0
2018-Feb-15 08:31N 29°60' W 093°57'0 0.0
2018-Feb-15 08:00N 29°60' W 093°57'0 0.0
2018-Feb-15 07:31N 29°60' W 093°57'0 0.0
2018-Feb-15 07:00N 29°60' W 093°57'0 0.0
2018-Feb-15 06:31N 29°60' W 093°57'0 0.0
2018-Feb-15 06:01N 29°60' W 093°57'0 0.0
2018-Feb-15 05:31N 29°60' W 093°57'0 0.0
2018-Feb-15 05:00N 29°60' W 093°57'0 0.0
2018-Feb-15 04:30N 29°60' W 093°57'0 0.0
2018-Feb-15 04:01N 29°60' W 093°57'0 0.0
2018-Feb-15 03:31N 29°60' W 093°57'0 0.0
2018-Feb-15 03:01N 29°60' W 093°57'0 0.0
2018-Feb-15 02:31N 29°60' W 093°57'0 0.0
2018-Feb-15 02:01N 29°60' W 093°57'0 0.0
2018-Feb-15 01:31N 29°60' W 093°57'0 0.0
2018-Feb-15 01:00N 29°60' W 093°57'0 0.0
2018-Feb-15 00:30N 29°60' W 093°57'0 0.0
2018-Feb-15 00:01N 29°60' W 093°57'3 6.0
2018-Feb-14 23:31N 29°59' W 093°53'3 5.5
2018-Feb-14 23:00N 29°57' W 093°52'4 8.9
2018-Feb-14 22:30N 29°53' W 093°55'2 3.9
2018-Feb-14 22:00N 29°52' W 093°56'0 0.0
2018-Feb-14 21:31N 29°52' W 093°56'0 0.0
2018-Feb-14 21:00N 29°52' W 093°56'0 0.0
2018-Feb-14 20:31N 29°52' W 093°56'0 0.0
2018-Feb-14 20:01N 29°52' W 093°56'0 0.0
2018-Feb-14 19:30N 29°52' W 093°56'0 0.0
2018-Feb-14 19:01N 29°52' W 093°56'0 0.0
2018-Feb-14 18:31N 29°52' W 093°56'0 0.0
2018-Feb-14 18:00N 29°52' W 093°56'0 0.0
2018-Feb-14 17:30N 29°52' W 093°56'0 0.0
2018-Feb-14 17:00N 29°52' W 093°56'0 0.0
2018-Feb-14 16:31N 29°52' W 093°56'0 0.0
2018-Feb-14 16:00N 29°52' W 093°56'0 0.0
2018-Feb-14 15:31N 29°52' W 093°56'0 0.0
2018-Feb-14 15:01N 29°52' W 093°56'0 0.0
2018-Feb-14 14:31N 29°52' W 093°56'0 0.0
2018-Feb-14 14:00N 29°52' W 093°56'0 0.0
2018-Feb-14 13:31N 29°52' W 093°56'0 0.0
2018-Feb-14 13:01N 29°52' W 093°56'0 0.0
2018-Feb-14 12:31N 29°52' W 093°56'0 0.0
2018-Feb-14 12:00N 29°52' W 093°56'0 0.0
2018-Feb-14 11:30N 29°52' W 093°56'0 0.0
2018-Feb-14 11:01N 29°52' W 093°56'0 0.0
2018-Feb-14 10:31N 29°52' W 093°56'0 0.0
2018-Feb-14 10:01N 29°52' W 093°56'0 0.0
2018-Feb-14 09:31N 29°52' W 093°56'0 0.0
2018-Feb-14 09:01N 29°52' W 093°56'0 0.0
2018-Feb-14 08:31N 29°52' W 093°56'2 4.2
2018-Feb-14 08:01N 29°50' W 093°58'0 0.0
2018-Feb-14 07:30N 29°50' W 093°58'0 0.0
2018-Feb-14 07:01N 29°50' W 093°58'0 0.0
2018-Feb-14 06:31N 29°50' W 093°58'0 0.0
2018-Feb-14 06:01N 29°50' W 093°58'2 3.7
2018-Feb-14 05:31N 29°51' W 093°57'5 9.3
2018-Feb-14 05:00N 29°55' W 093°53'1 1.9
2018-Feb-14 04:30N 29°56' W 093°53'2 4.5
2018-Feb-14 03:59N 29°58' W 093°51'0 0.0
2018-Feb-14 03:30N 29°58' W 093°51'0 0.0
2018-Feb-14 03:00N 29°58' W 093°51'0 0.0
2018-Feb-14 02:30N 29°58' W 093°51'0 0.0
2018-Feb-14 02:00N 29°58' W 093°51'0 0.0
2018-Feb-14 01:29N 29°58' W 093°51'0 0.0
2018-Feb-14 01:00N 29°58' W 093°51'0 0.0
2018-Feb-14 00:29N 29°58' W 093°51'0 0.0
2018-Feb-14 00:00N 29°58' W 093°51'0 0.0
2018-Feb-13 23:30N 29°58' W 093°51'0 0.0
2018-Feb-13 23:00N 29°58' W 093°51'0 0.0
2018-Feb-13 22:30N 29°58' W 093°51'0 0.0
2018-Feb-13 22:00N 29°58' W 093°51'0 0.0
2018-Feb-13 21:30N 29°58' W 093°51'0 0.0
2018-Feb-13 21:00N 29°58' W 093°51'0 0.0
2018-Feb-13 20:30N 29°58' W 093°51'0 0.0
2018-Feb-13 20:00N 29°58' W 093°51'0 0.0
2018-Feb-13 19:30N 29°58' W 093°51'0 0.0
2018-Feb-13 19:00N 29°58' W 093°51'1 1.9
2018-Feb-13 18:30N 29°58' W 093°50'4 8.2
2018-Feb-13 18:00N 30°00' W 093°46'4 8.3
2018-Feb-13 17:30N 30°03' W 093°43'1 2.0
2018-Feb-13 17:00N 30°04' W 093°44'1 0.9
2018-Feb-13 16:19N 30°04' W 093°43'1 1.6
2018-Feb-13 15:44N 30°03' W 093°43'2 6.6
2018-Feb-13 15:27N 30°01' W 093°45'3 7.0
2018-Feb-13 14:58N 29°59' W 093°48'4 7.7
2018-Feb-13 14:30N 29°58' W 093°51'3 6.9
2018-Feb-13 14:00N 29°55' W 093°53'3 6.9
2018-Feb-13 13:30N 29°52' W 093°56'3 6.9
2018-Feb-13 13:00N 29°49' W 093°58'3 6.4
2018-Feb-13 12:30N 29°46' W 093°56'4 7.5
2018-Feb-13 12:00N 29°44' W 093°52'3 6.6
2018-Feb-13 11:30N 29°41' W 093°50'1 2.3
2018-Feb-13 11:00N 29°40' W 093°50'3 6.5
2018-Feb-13 10:30N 29°43' W 093°52'3 6.4
2018-Feb-13 10:00N 29°46' W 093°54'4 7.0
2018-Feb-13 09:29N 29°48' W 093°57'2 4.1
2018-Feb-13 09:00N 29°50' W 093°58'0 0.0
2018-Feb-13 08:30N 29°50' W 093°58'0 0.0
2018-Feb-13 08:00N 29°50' W 093°58'0 0.0
2018-Feb-13 07:30N 29°50' W 093°58'0 0.0
2018-Feb-13 07:00N 29°50' W 093°58'0 0.0
2018-Feb-13 06:30N 29°50' W 093°58'1 3.0
2018-Feb-13 06:00N 29°51' W 093°57'1 1.8
2018-Feb-13 05:30N 29°52' W 093°56'2 4.0
2018-Feb-13 05:00N 29°50' W 093°57'0 0.7
2018-Feb-13 04:30N 29°50' W 093°58'1 2.7
2018-Feb-13 04:00N 29°51' W 093°57'5 9.2
2018-Feb-13 03:30N 29°55' W 093°54'4 8.6
2018-Feb-13 03:00N 29°58' W 093°51'5 9.3
2018-Feb-13 02:30N 29°60' W 093°57'2 4.5
2018-Feb-13 02:00N 30°00' W 093°59'0 0.0
2018-Feb-13 01:30N 30°00' W 093°59'0 0.0
2018-Feb-13 01:00N 30°00' W 093°59'1 2.5
2018-Feb-13 00:30N 30°01' W 093°58'1 1.3
2018-Feb-13 00:00N 30°01' W 093°58'0 0.0
2018-Feb-12 23:30N 30°01' W 093°58'0 0.0
2018-Feb-12 22:59N 30°01' W 093°58'0 0.0
2018-Feb-12 22:30N 30°01' W 093°58'1 1.2
2018-Feb-12 22:00N 30°01' W 093°59'1 1.4
2018-Feb-12 21:30N 30°01' W 093°58'0 0.7
2018-Feb-12 21:00N 30°01' W 093°58'0 1.0
2018-Feb-12 20:30N 30°01' W 093°58'1 1.8
2018-Feb-12 20:00N 30°01' W 093°59'0 0.0
2018-Feb-12 19:30N 30°01' W 093°59'0 0.1
2018-Feb-12 19:00N 30°01' W 093°59'0 0.4
2018-Feb-12 18:30N 30°01' W 093°59'1 2.9
2018-Feb-12 18:00N 30°01' W 093°57'3 5.8
2018-Feb-12 17:30N 29°59' W 093°54'0 0.2
2018-Feb-12 17:00N 29°59' W 093°54'2 3.0
2018-Feb-12 16:30N 29°59' W 093°53'1 2.7
2018-Feb-12 16:00N 29°58' W 093°51'0 0.0
2018-Feb-12 15:30N 29°58' W 093°51'0 0.0
2018-Feb-12 15:00N 29°58' W 093°51'0 0.0
2018-Feb-12 14:30N 29°58' W 093°51'0 0.0
2018-Feb-12 14:00N 29°58' W 093°51'0 0.0
2018-Feb-12 13:30N 29°58' W 093°51'0 0.0
2018-Feb-12 13:00N 29°58' W 093°51'0 0.0
2018-Feb-12 12:30N 29°58' W 093°51'0 0.0
2018-Feb-12 12:00N 29°58' W 093°51'0 0.0
2018-Feb-12 11:30N 29°58' W 093°51'0 0.0
2018-Feb-12 11:00N 29°58' W 093°51'0 0.0
2018-Feb-12 10:30N 29°58' W 093°51'2 4.7
2018-Feb-12 10:00N 29°56' W 093°53'0 0.0
2018-Feb-12 09:30N 29°56' W 093°53'0 0.3
2018-Feb-12 09:00N 29°56' W 093°52'1 2.1
2018-Feb-12 08:30N 29°55' W 093°53'3 6.6
2018-Feb-12 08:00N 29°58' W 093°51'0 0.1
2018-Feb-12 07:30N 29°58' W 093°51'0 0.0
2018-Feb-12 07:00N 29°58' W 093°51'0 0.0
2018-Feb-12 06:30N 29°58' W 093°51'0 0.0
2018-Feb-12 06:00N 29°58' W 093°51'0 0.0
2018-Feb-12 05:30N 29°58' W 093°51'0 0.0
2018-Feb-12 05:00N 29°58' W 093°51'0 0.0
2018-Feb-12 04:30N 29°58' W 093°51'0 0.0
2018-Feb-12 04:00N 29°58' W 093°51'0 0.0
2018-Feb-12 03:30N 29°58' W 093°51'0 0.0
2018-Feb-12 03:00N 29°58' W 093°51'0 0.0
2018-Feb-12 02:30N 29°58' W 093°51'0 0.0
2018-Feb-12 02:00N 29°58' W 093°51'0 0.0
2018-Feb-12 01:30N 29°58' W 093°51'4 7.5
2018-Feb-12 01:00N 29°59' W 093°55'1 1.9
2018-Feb-12 00:30N 29°60' W 093°57'0 0.2
2018-Feb-12 00:00N 29°60' W 093°57'0 0.1
2018-Feb-11 23:30N 29°60' W 093°57'2 3.4
2018-Feb-11 23:00N 30°01' W 093°58'2 3.1
2018-Feb-11 22:30N 30°01' W 093°60'1 2.2
2018-Feb-11 22:00N 30°01' W 093°58'1 2.6
2018-Feb-11 21:30N 30°00' W 093°57'2 4.8
2018-Feb-11 21:00N 30°01' W 093°60'0 0.7
2018-Feb-11 20:26N 30°01' W 094°00'3 6.2
2018-Feb-11 20:00N 30°03' W 094°02'3 6.8
2018-Feb-11 19:30N 30°05' W 094°05'0 0.1
2018-Feb-11 18:59N 30°05' W 094°05'2 5.0
2018-Feb-11 18:30N 30°04' W 094°03'4 8.3
2018-Feb-11 18:00N 30°01' W 093°60'4 8.0
2018-Feb-11 17:30N 29°59' W 093°55'4 6.5
2018-Feb-11 16:58N 29°58' W 093°51'2 4.5
2018-Feb-11 16:30N 29°59' W 093°54'4 8.5
2018-Feb-11 16:00N 30°01' W 093°58'0 0.0
2018-Feb-11 15:30N 30°01' W 093°58'0 0.0
2018-Feb-11 15:00N 30°01' W 093°58'0 0.0
2018-Feb-11 14:30N 30°01' W 093°58'0 0.0
2018-Feb-11 14:00N 30°01' W 093°58'0 0.0
2018-Feb-11 13:30N 30°01' W 093°58'0 0.0
2018-Feb-11 13:00N 30°01' W 093°58'0 0.0
2018-Feb-11 12:30N 30°01' W 093°58'0 0.0
2018-Feb-11 12:00N 30°01' W 093°58'0 0.0
2018-Feb-11 11:30N 30°01' W 093°58'0 0.0
2018-Feb-11 11:00N 30°01' W 093°58'0 0.0
2018-Feb-11 10:30N 30°01' W 093°58'0 0.0
2018-Feb-11 10:00N 30°01' W 093°58'0 0.0
2018-Feb-11 09:30N 30°01' W 093°58'0 0.0
2018-Feb-11 09:00N 30°01' W 093°58'0 0.0
2018-Feb-11 08:30N 30°01' W 093°58'0 0.0
2018-Feb-11 08:00N 30°01' W 093°58'0 0.0
2018-Feb-11 07:30N 30°01' W 093°58'0 0.0
2018-Feb-11 07:00N 30°01' W 093°58'0 0.0
2018-Feb-11 06:30N 30°01' W 093°58'1 2.8
2018-Feb-11 06:00N 30°01' W 093°60'2 4.0
2018-Feb-11 05:30N 30°01' W 093°57'4 8.3
2018-Feb-11 05:00N 29°59' W 093°53'2 3.3
2018-Feb-11 04:30N 29°58' W 093°51'0 0.0
2018-Feb-11 04:00N 29°58' W 093°51'0 0.0
2018-Feb-11 03:30N 29°58' W 093°51'0 0.0
2018-Feb-11 03:00N 29°58' W 093°51'0 0.0
2018-Feb-11 02:31N 29°58' W 093°51'0 0.0
2018-Feb-11 01:59N 29°58' W 093°51'0 0.0
2018-Feb-11 01:31N 29°58' W 093°51'0 0.0
2018-Feb-11 00:59N 29°58' W 093°51'0 0.0
2018-Feb-11 00:30N 29°58' W 093°51'0 0.0
2018-Feb-11 00:01N 29°58' W 093°51'0 0.0
2018-Feb-10 23:30N 29°58' W 093°51'0 0.0
2018-Feb-10 23:00N 29°58' W 093°51'0 0.0
2018-Feb-10 22:30N 29°58' W 093°51'0 0.0
2018-Feb-10 22:01N 29°58' W 093°51'0 0.0
2018-Feb-10 21:29N 29°58' W 093°51'0 0.0
2018-Feb-10 21:01N 29°58' W 093°51'0 0.0
2018-Feb-10 20:31N 29°58' W 093°51'0 0.0
2018-Feb-10 20:00N 29°58' W 093°51'0 0.0
2018-Feb-10 19:30N 29°58' W 093°51'0 0.0
2018-Feb-10 19:01N 29°58' W 093°51'0 0.0
2018-Feb-10 18:30N 29°58' W 093°51'0 0.0
2018-Feb-10 18:01N 29°58' W 093°51'0 0.0
2018-Feb-10 17:30N 29°58' W 093°51'0 0.0
2018-Feb-10 16:58N 29°58' W 093°51'0 0.0
2018-Feb-10 16:30N 29°58' W 093°51'0 0.0
2018-Feb-10 16:01N 29°58' W 093°51'0 0.0
2018-Feb-10 15:30N 29°58' W 093°51'0 0.0
2018-Feb-10 15:00N 29°58' W 093°51'0 0.0
2018-Feb-10 14:30N 29°58' W 093°51'0 0.0
2018-Feb-10 14:01N 29°58' W 093°51'0 0.0
2018-Feb-10 13:30N 29°58' W 093°51'0 0.0
2018-Feb-10 13:00N 29°58' W 093°51'0 0.0
2018-Feb-10 12:30N 29°58' W 093°51'0 0.0
2018-Feb-10 12:00N 29°58' W 093°51'0 0.0
2018-Feb-10 11:30N 29°58' W 093°51'0 0.0
2018-Feb-10 11:00N 29°58' W 093°51'0 0.0
2018-Feb-10 10:30N 29°58' W 093°51'0 0.0
2018-Feb-10 10:01N 29°58' W 093°51'0 0.0
2018-Feb-10 09:30N 29°58' W 093°51'0 0.0
2018-Feb-10 09:00N 29°58' W 093°51'0 0.0
2018-Feb-10 08:30N 29°58' W 093°51'0 0.0
2018-Feb-10 08:00N 29°58' W 093°51'0 0.0
2018-Feb-10 07:30N 29°58' W 093°51'0 0.0
2018-Feb-10 06:59N 29°58' W 093°51'0 0.0
2018-Feb-10 06:29N 29°58' W 093°51'0 0.0
2018-Feb-10 06:00N 29°58' W 093°51'0 0.0
2018-Feb-10 05:31N 29°58' W 093°51'1 1.6
2018-Feb-10 05:00N 29°59' W 093°52'5 9.3
2018-Feb-10 04:30N 29°60' W 093°57'3 5.8
2018-Feb-10 04:00N 30°01' W 094°00'0 0.0
2018-Feb-10 03:30N 30°01' W 094°00'0 0.0
2018-Feb-10 03:00N 30°01' W 094°00'0 0.6
2018-Feb-10 02:30N 30°01' W 093°60'0 0.7
2018-Feb-10 02:00N 30°01' W 093°60'0 0.3
2018-Feb-10 01:30N 30°01' W 093°60'1 2.7
2018-Feb-10 01:00N 30°01' W 093°58'0 0.0
2018-Feb-10 00:30N 30°01' W 093°58'0 0.0
2018-Feb-10 00:00N 30°01' W 093°58'0 0.0
2018-Feb-09 23:30N 30°01' W 093°58'0 0.0
2018-Feb-09 23:00N 30°01' W 093°58'0 0.0
2018-Feb-09 22:46N 30°01' W 093°58'1 1.7
2018-Feb-09 22:00N 29°60' W 093°57'1 1.3
2018-Feb-09 21:30N 29°60' W 093°56'0 0.0
2018-Feb-09 21:00N 29°60' W 093°56'2 3.9
2018-Feb-09 20:30N 30°01' W 093°58'0 0.0
2018-Feb-09 20:00N 30°01' W 093°58'0 0.0
2018-Feb-09 19:30N 30°01' W 093°58'0 0.0
2018-Feb-09 19:00N 30°01' W 093°58'4 3.7
2018-Feb-09 18:00N 30°02' W 094°02'0 0.1
2018-Feb-09 17:30N 30°02' W 094°02'4 3.8
2018-Feb-09 16:30N 30°05' W 094°05'0 0.2
2018-Feb-09 15:30N 30°05' W 094°05'0 0.0
2018-Feb-09 15:00N 30°05' W 094°05'0 0.0
2018-Feb-09 14:30N 30°05' W 094°05'0 0.0
2018-Feb-09 14:00N 30°05' W 094°05'0 0.0
2018-Feb-09 12:30N 30°05' W 094°05'0 0.2
2018-Feb-09 11:00N 30°05' W 094°05'1 2.5
2018-Feb-09 10:30N 30°04' W 094°03'0 0.0
2018-Feb-09 10:00N 30°04' W 094°03'5 3.2
2018-Feb-09 08:30N 30°01' W 093°60'0 0.1
2018-Feb-09 07:30N 30°01' W 093°60'2 3.6
2018-Feb-09 07:00N 30°01' W 093°58'2 3.1
2018-Feb-09 06:30N 29°60' W 093°56'0 0.0
2018-Feb-09 06:00N 29°60' W 093°57'0 0.0
2018-Feb-09 05:30N 29°60' W 093°56'0 0.0
2018-Feb-09 05:00N 29°60' W 093°56'0 0.0
2018-Feb-09 04:30N 29°60' W 093°57'0 0.0
2018-Feb-09 04:00N 29°60' W 093°56'0 0.0
2018-Feb-09 03:30N 29°60' W 093°56'0 0.0
2018-Feb-09 03:00N 29°60' W 093°56'0 0.0
2018-Feb-09 02:30N 29°60' W 093°56'0 0.0
2018-Feb-09 01:30N 29°60' W 093°56'0 0.0
2018-Feb-09 01:00N 29°60' W 093°56'0 0.0
2018-Feb-09 00:30N 29°60' W 093°57'1 0.7
2018-Feb-08 23:30N 29°59' W 093°56'2 2.4
2018-Feb-08 22:30N 30°01' W 093°58'1 1.7
2018-Feb-08 22:00N 30°01' W 093°59'1 1.4
2018-Feb-08 21:30N 30°01' W 093°60'1 1.6
2018-Feb-08 21:00N 30°01' W 094°01'  
Track history (hours):
 
Tides and Currents Weather Stations Pressure Air Temp Water Temp Dewpoint Dewpoint Depression Visibility Wind Speed Wind Dir Waves Ship Positions

Helen B Moran

Owner: Moran Towing Corporation, New Cannan, CT. More information available from US FCC via Universal Licensing System and Coast Guard Vessel Documentation Center.

Last reported at 2018-Feb-18 19:59 UTC. Time now 2018-Feb-18 20:27 UTC.
Position N 29°58' W 093°51'.

Length 32 m; draft 4.9 m.

Type: Towing. MMSI: 366967360.

Date/timePositionNaut miles runAvg speedWind from/ knotsBaromVisibWave heightAir tempDewpointWater temp
2018-Feb-18 19:59N 29°58' W 093°51'0 0.0
2018-Feb-18 19:30N 29°58' W 093°51'5 9.3
2018-Feb-18 19:00N 29°60' W 093°56'2 3.6
2018-Feb-18 18:30N 30°01' W 093°58'0 0.0
2018-Feb-18 18:00N 30°01' W 093°58'0 0.0
2018-Feb-18 17:30N 30°01' W 093°58'2 3.8
2018-Feb-18 17:00N 29°60' W 093°56'4 8.8
2018-Feb-18 16:30N 29°58' W 093°51'0 0.8
2018-Feb-18 16:00N 29°58' W 093°51'0 0.0
2018-Feb-18 15:30N 29°58' W 093°51'0 0.0
2018-Feb-18 15:00N 29°58' W 093°51'0 0.0
2018-Feb-18 14:29N 29°58' W 093°51'0 0.0
2018-Feb-18 14:00N 29°58' W 093°51'0 0.0
2018-Feb-18 13:30N 29°58' W 093°51'0 0.0
2018-Feb-18 13:00N 29°58' W 093°51'0 0.0
2018-Feb-18 12:30N 29°58' W 093°51'0 0.0
2018-Feb-18 12:00N 29°58' W 093°51'0 0.0
2018-Feb-18 11:30N 29°58' W 093°51'0 0.0
2018-Feb-18 11:00N 29°58' W 093°51'0 0.0
2018-Feb-18 10:30N 29°58' W 093°51'0 0.0
2018-Feb-18 10:00N 29°58' W 093°51'0 0.0
2018-Feb-18 09:30N 29°58' W 093°51'0 0.0
2018-Feb-18 09:00N 29°58' W 093°51'0 0.0
2018-Feb-18 08:30N 29°58' W 093°51'0 0.0
2018-Feb-18 08:00N 29°58' W 093°51'0 0.0
2018-Feb-18 07:30N 29°58' W 093°51'0 0.0
2018-Feb-18 07:00N 29°58' W 093°51'0 0.0
2018-Feb-18 06:30N 29°58' W 093°51'0 0.0
2018-Feb-18 06:00N 29°58' W 093°51'0 0.0
2018-Feb-18 05:30N 29°58' W 093°51'0 0.0
2018-Feb-18 04:59N 29°58' W 093°51'0 0.0
2018-Feb-18 04:30N 29°58' W 093°51'0 0.0
2018-Feb-18 04:00N 29°58' W 093°51'0 0.0
2018-Feb-18 03:30N 29°58' W 093°51'0 0.0
2018-Feb-18 03:00N 29°58' W 093°51'0 0.0
2018-Feb-18 02:30N 29°58' W 093°51'0 0.0
2018-Feb-18 02:00N 29°58' W 093°51'0 0.0
2018-Feb-18 01:30N 29°58' W 093°51'0 0.0
2018-Feb-18 01:00N 29°58' W 093°51'0 0.0
2018-Feb-18 00:30N 29°58' W 093°51'4 7.3
2018-Feb-18 00:00N 29°59' W 093°55'4 7.2
2018-Feb-17 23:30N 30°01' W 093°59'0 0.0
2018-Feb-17 22:59N 30°01' W 093°59'0 0.0
2018-Feb-17 22:30N 30°01' W 093°59'0 0.5
2018-Feb-17 22:00N 30°01' W 093°59'0 0.4
2018-Feb-17 21:30N 30°01' W 093°59'1 3.0
2018-Feb-17 21:00N 30°01' W 093°57'4 8.5
2018-Feb-17 20:30N 29°59' W 093°53'1 2.8
2018-Feb-17 20:00N 29°58' W 093°51'0 0.0
2018-Feb-16 22:08N 29°58' W 093°51'0 0.0
2018-Feb-16 22:00N 29°58' W 093°51'0 0.0
2018-Feb-16 21:30N 29°58' W 093°51'1 2.4
2018-Feb-16 21:00N 29°59' W 093°52'5 9.1
2018-Feb-16 20:30N 30°00' W 093°57'4 8.5
2018-Feb-16 20:00N 30°02' W 094°02'0 0.2
2018-Feb-16 19:31N 30°02' W 094°02'0 0.4
2018-Feb-16 19:00N 30°02' W 094°02'1 2.2
2018-Feb-16 18:31N 30°01' W 094°01'4 6.9
2018-Feb-16 18:00N 30°01' W 093°57'1 2.4
2018-Feb-16 17:30N 29°60' W 093°57'0 0.0
2018-Feb-16 17:00N 29°60' W 093°57'0 0.0
2018-Feb-16 16:30N 29°60' W 093°57'0 0.0
2018-Feb-16 16:00N 29°60' W 093°57'0 0.0
2018-Feb-16 15:30N 29°60' W 093°57'0 0.0
2018-Feb-16 15:00N 29°60' W 093°57'0 0.0
2018-Feb-16 14:30N 29°60' W 093°57'0 0.0
2018-Feb-16 14:01N 29°60' W 093°57'0 0.0
2018-Feb-16 13:31N 29°60' W 093°57'0 0.0
2018-Feb-16 13:00N 29°60' W 093°57'0 0.0
2018-Feb-16 12:30N 29°60' W 093°57'0 0.0
2018-Feb-16 12:00N 29°60' W 093°57'0 0.0
2018-Feb-16 11:30N 29°60' W 093°57'0 0.0
2018-Feb-16 11:00N 29°60' W 093°57'0 0.0
2018-Feb-16 10:31N 29°60' W 093°57'0 0.0
2018-Feb-16 10:01N 29°60' W 093°57'0 0.0
2018-Feb-16 09:31N 29°60' W 093°57'0 0.0
2018-Feb-16 09:01N 29°60' W 093°57'0 0.0
2018-Feb-16 08:30N 29°60' W 093°57'0 0.0
2018-Feb-16 08:00N 29°60' W 093°57'0 0.0
2018-Feb-16 07:30N 29°60' W 093°57'0 0.0
2018-Feb-16 07:00N 29°60' W 093°57'0 0.0
2018-Feb-16 06:30N 29°60' W 093°57'0 0.0
2018-Feb-16 06:00N 29°60' W 093°57'0 0.0
2018-Feb-16 05:30N 29°60' W 093°57'0 0.0
2018-Feb-16 05:00N 29°60' W 093°57'0 0.0
2018-Feb-16 04:30N 29°60' W 093°57'0 0.0
2018-Feb-16 04:00N 29°60' W 093°57'0 0.0
2018-Feb-16 03:30N 29°60' W 093°57'0 0.0
2018-Feb-16 03:00N 29°60' W 093°57'0 0.0
2018-Feb-16 02:30N 29°60' W 093°57'0 0.0
2018-Feb-16 02:00N 29°60' W 093°57'0 0.0
2018-Feb-16 01:30N 29°60' W 093°57'0 0.0
2018-Feb-16 01:00N 29°60' W 093°57'0 0.0
2018-Feb-16 00:30N 29°60' W 093°57'0 0.0
2018-Feb-16 00:00N 29°60' W 093°57'0 0.0
2018-Feb-15 23:30N 29°60' W 093°57'0 0.0
2018-Feb-15 23:01N 29°60' W 093°57'0 0.0
2018-Feb-15 22:30N 29°60' W 093°57'0 0.0
2018-Feb-15 22:00N 29°60' W 093°57'0 0.0
2018-Feb-15 21:30N 29°60' W 093°57'0 0.0
2018-Feb-15 21:00N 29°60' W 093°57'0 0.0
2018-Feb-15 20:30N 29°60' W 093°57'0 0.0
2018-Feb-15 20:00N 29°60' W 093°57'0 0.0
2018-Feb-15 19:31N 29°60' W 093°57'0 0.0
2018-Feb-15 19:01N 29°60' W 093°57'0 0.0
2018-Feb-15 18:30N 29°60' W 093°57'0 0.0
2018-Feb-15 18:00N 29°60' W 093°57'0 0.0
2018-Feb-15 17:30N 29°60' W 093°57'0 0.0
2018-Feb-15 17:00N 29°60' W 093°57'0 0.0
2018-Feb-15 16:30N 29°60' W 093°57'0 0.0
2018-Feb-15 16:00N 29°60' W 093°57'0 0.0
2018-Feb-15 15:30N 29°60' W 093°57'0 0.0
2018-Feb-15 15:00N 29°60' W 093°57'0 0.0
2018-Feb-15 14:30N 29°60' W 093°57'0 0.0
2018-Feb-15 14:00N 29°60' W 093°57'0 0.0
2018-Feb-15 13:30N 29°60' W 093°57'0 0.0
2018-Feb-15 13:00N 29°60' W 093°57'0 0.0
2018-Feb-15 12:30N 29°60' W 093°57'0 0.0
2018-Feb-15 12:00N 29°60' W 093°57'0 0.0
2018-Feb-15 11:30N 29°60' W 093°57'0 0.0
2018-Feb-15 11:01N 29°60' W 093°57'0 0.0
2018-Feb-15 10:31N 29°60' W 093°57'0 0.0
2018-Feb-15 10:01N 29°60' W 093°57'0 0.0
2018-Feb-15 09:30N 29°60' W 093°57'0 0.0
2018-Feb-15 09:01N 29°60' W 093°57'0 0.0
2018-Feb-15 08:31N 29°60' W 093°57'0 0.0
2018-Feb-15 08:00N 29°60' W 093°57'0 0.0
2018-Feb-15 07:31N 29°60' W 093°57'0 0.0
2018-Feb-15 07:00N 29°60' W 093°57'0 0.0
2018-Feb-15 06:31N 29°60' W 093°57'0 0.0
2018-Feb-15 06:01N 29°60' W 093°57'0 0.0
2018-Feb-15 05:31N 29°60' W 093°57'0 0.0
2018-Feb-15 05:00N 29°60' W 093°57'0 0.0
2018-Feb-15 04:30N 29°60' W 093°57'0 0.0
2018-Feb-15 04:01N 29°60' W 093°57'0 0.0
2018-Feb-15 03:31N 29°60' W 093°57'0 0.0
2018-Feb-15 03:01N 29°60' W 093°57'0 0.0
2018-Feb-15 02:31N 29°60' W 093°57'0 0.0
2018-Feb-15 02:01N 29°60' W 093°57'0 0.0
2018-Feb-15 01:31N 29°60' W 093°57'0 0.0
2018-Feb-15 01:00N 29°60' W 093°57'0 0.0
2018-Feb-15 00:30N 29°60' W 093°57'0 0.0
2018-Feb-15 00:01N 29°60' W 093°57'3 6.0
2018-Feb-14 23:31N 29°59' W 093°53'3 5.5
2018-Feb-14 23:00N 29°57' W 093°52'4 8.9
2018-Feb-14 22:30N 29°53' W 093°55'2 3.9
2018-Feb-14 22:00N 29°52' W 093°56'0 0.0
2018-Feb-14 21:31N 29°52' W 093°56'0 0.0
2018-Feb-14 21:00N 29°52' W 093°56'0 0.0
2018-Feb-14 20:31N 29°52' W 093°56'0 0.0
2018-Feb-14 20:01N 29°52' W 093°56'0 0.0
2018-Feb-14 19:30N 29°52' W 093°56'0 0.0
2018-Feb-14 19:01N 29°52' W 093°56'0 0.0
2018-Feb-14 18:31N 29°52' W 093°56'0 0.0
2018-Feb-14 18:00N 29°52' W 093°56'0 0.0
2018-Feb-14 17:30N 29°52' W 093°56'0 0.0
2018-Feb-14 17:00N 29°52' W 093°56'0 0.0
2018-Feb-14 16:31N 29°52' W 093°56'0 0.0
2018-Feb-14 16:00N 29°52' W 093°56'0 0.0
2018-Feb-14 15:31N 29°52' W 093°56'0 0.0
2018-Feb-14 15:01N 29°52' W 093°56'0 0.0
2018-Feb-14 14:31N 29°52' W 093°56'0 0.0
2018-Feb-14 14:00N 29°52' W 093°56'0 0.0
2018-Feb-14 13:31N 29°52' W 093°56'0 0.0
2018-Feb-14 13:01N 29°52' W 093°56'0 0.0
2018-Feb-14 12:31N 29°52' W 093°56'0 0.0
2018-Feb-14 12:00N 29°52' W 093°56'0 0.0
2018-Feb-14 11:30N 29°52' W 093°56'0 0.0
2018-Feb-14 11:01N 29°52' W 093°56'0 0.0
2018-Feb-14 10:31N 29°52' W 093°56'0 0.0
2018-Feb-14 10:01N 29°52' W 093°56'0 0.0
2018-Feb-14 09:31N 29°52' W 093°56'0 0.0
2018-Feb-14 09:01N 29°52' W 093°56'0 0.0
2018-Feb-14 08:31N 29°52' W 093°56'2 4.2
2018-Feb-14 08:01N 29°50' W 093°58'0 0.0
2018-Feb-14 07:30N 29°50' W 093°58'0 0.0
2018-Feb-14 07:01N 29°50' W 093°58'0 0.0
2018-Feb-14 06:31N 29°50' W 093°58'0 0.0
2018-Feb-14 06:01N 29°50' W 093°58'2 3.7
2018-Feb-14 05:31N 29°51' W 093°57'5 9.3
2018-Feb-14 05:00N 29°55' W 093°53'1 1.9
2018-Feb-14 04:30N 29°56' W 093°53'2 4.5
2018-Feb-14 03:59N 29°58' W 093°51'0 0.0
2018-Feb-14 03:30N 29°58' W 093°51'0 0.0
2018-Feb-14 03:00N 29°58' W 093°51'0 0.0
2018-Feb-14 02:30N 29°58' W 093°51'0 0.0
2018-Feb-14 02:00N 29°58' W 093°51'0 0.0
2018-Feb-14 01:29N 29°58' W 093°51'0 0.0
2018-Feb-14 01:00N 29°58' W 093°51'0 0.0
2018-Feb-14 00:29N 29°58' W 093°51'0 0.0
2018-Feb-14 00:00N 29°58' W 093°51'0 0.0
2018-Feb-13 23:30N 29°58' W 093°51'0 0.0
2018-Feb-13 23:00N 29°58' W 093°51'0 0.0
2018-Feb-13 22:30N 29°58' W 093°51'0 0.0
2018-Feb-13 22:00N 29°58' W 093°51'0 0.0
2018-Feb-13 21:30N 29°58' W 093°51'0 0.0
2018-Feb-13 21:00N 29°58' W 093°51'0 0.0
2018-Feb-13 20:30N 29°58' W 093°51'0 0.0
2018-Feb-13 20:00N 29°58' W 093°51'0 0.0
2018-Feb-13 19:30N 29°58' W 093°51'0 0.0
2018-Feb-13 19:00N 29°58' W 093°51'1 1.9
2018-Feb-13 18:30N 29°58' W 093°50'4 8.2
2018-Feb-13 18:00N 30°00' W 093°46'4 8.3
2018-Feb-13 17:30N 30°03' W 093°43'1 2.0
2018-Feb-13 17:00N 30°04' W 093°44'1 0.9
2018-Feb-13 16:19N 30°04' W 093°43'1 1.6
2018-Feb-13 15:44N 30°03' W 093°43'2 6.6
2018-Feb-13 15:27N 30°01' W 093°45'3 7.0
2018-Feb-13 14:58N 29°59' W 093°48'4 7.7
2018-Feb-13 14:30N 29°58' W 093°51'3 6.9
2018-Feb-13 14:00N 29°55' W 093°53'3 6.9
2018-Feb-13 13:30N 29°52' W 093°56'3 6.9
2018-Feb-13 13:00N 29°49' W 093°58'3 6.4
2018-Feb-13 12:30N 29°46' W 093°56'4 7.5
2018-Feb-13 12:00N 29°44' W 093°52'3 6.6
2018-Feb-13 11:30N 29°41' W 093°50'1 2.3
2018-Feb-13 11:00N 29°40' W 093°50'3 6.5
2018-Feb-13 10:30N 29°43' W 093°52'3 6.4
2018-Feb-13 10:00N 29°46' W 093°54'4 7.0
2018-Feb-13 09:29N 29°48' W 093°57'2 4.1
2018-Feb-13 09:00N 29°50' W 093°58'0 0.0
2018-Feb-13 08:30N 29°50' W 093°58'0 0.0
2018-Feb-13 08:00N 29°50' W 093°58'0 0.0
2018-Feb-13 07:30N 29°50' W 093°58'0 0.0
2018-Feb-13 07:00N 29°50' W 093°58'0 0.0
2018-Feb-13 06:30N 29°50' W 093°58'1 3.0
2018-Feb-13 06:00N 29°51' W 093°57'1 1.8
2018-Feb-13 05:30N 29°52' W 093°56'2 4.0
2018-Feb-13 05:00N 29°50' W 093°57'0 0.7
2018-Feb-13 04:30N 29°50' W 093°58'1 2.7
2018-Feb-13 04:00N 29°51' W 093°57'5 9.2
2018-Feb-13 03:30N 29°55' W 093°54'4 8.6
2018-Feb-13 03:00N 29°58' W 093°51'5 9.3
2018-Feb-13 02:30N 29°60' W 093°57'2 4.5
2018-Feb-13 02:00N 30°00' W 093°59'0 0.0
2018-Feb-13 01:30N 30°00' W 093°59'0 0.0
2018-Feb-13 01:00N 30°00' W 093°59'1 2.5
2018-Feb-13 00:30N 30°01' W 093°58'1 1.3
2018-Feb-13 00:00N 30°01' W 093°58'0 0.0
2018-Feb-12 23:30N 30°01' W 093°58'0 0.0
2018-Feb-12 22:59N 30°01' W 093°58'0 0.0
2018-Feb-12 22:30N 30°01' W 093°58'1 1.2
2018-Feb-12 22:00N 30°01' W 093°59'1 1.4
2018-Feb-12 21:30N 30°01' W 093°58'0 0.7
2018-Feb-12 21:00N 30°01' W 093°58'0 1.0
2018-Feb-12 20:30N 30°01' W 093°58'1 1.8
2018-Feb-12 20:00N 30°01' W 093°59'0 0.0
2018-Feb-12 19:30N 30°01' W 093°59'0 0.1
2018-Feb-12 19:00N 30°01' W 093°59'0 0.4
2018-Feb-12 18:30N 30°01' W 093°59'1 2.9
2018-Feb-12 18:00N 30°01' W 093°57'3 5.8
2018-Feb-12 17:30N 29°59' W 093°54'0 0.2
2018-Feb-12 17:00N 29°59' W 093°54'2 3.0
2018-Feb-12 16:30N 29°59' W 093°53'1 2.7
2018-Feb-12 16:00N 29°58' W 093°51'0 0.0
2018-Feb-12 15:30N 29°58' W 093°51'0 0.0
2018-Feb-12 15:00N 29°58' W 093°51'0 0.0
2018-Feb-12 14:30N 29°58' W 093°51'0 0.0
2018-Feb-12 14:00N 29°58' W 093°51'0 0.0
2018-Feb-12 13:30N 29°58' W 093°51'0 0.0
2018-Feb-12 13:00N 29°58' W 093°51'0 0.0
2018-Feb-12 12:30N 29°58' W 093°51'0 0.0
2018-Feb-12 12:00N 29°58' W 093°51'0 0.0
2018-Feb-12 11:30N 29°58' W 093°51'0 0.0
2018-Feb-12 11:00N 29°58' W 093°51'0 0.0
2018-Feb-12 10:30N 29°58' W 093°51'2 4.7
2018-Feb-12 10:00N 29°56' W 093°53'0 0.0
2018-Feb-12 09:30N 29°56' W 093°53'0 0.3
2018-Feb-12 09:00N 29°56' W 093°52'1 2.1
2018-Feb-12 08:30N 29°55' W 093°53'3 6.6
2018-Feb-12 08:00N 29°58' W 093°51'0 0.1
2018-Feb-12 07:30N 29°58' W 093°51'0 0.0
2018-Feb-12 07:00N 29°58' W 093°51'0 0.0
2018-Feb-12 06:30N 29°58' W 093°51'0 0.0
2018-Feb-12 06:00N 29°58' W 093°51'0 0.0
2018-Feb-12 05:30N 29°58' W 093°51'0 0.0
2018-Feb-12 05:00N 29°58' W 093°51'0 0.0
2018-Feb-12 04:30N 29°58' W 093°51'0 0.0
2018-Feb-12 04:00N 29°58' W 093°51'0 0.0
2018-Feb-12 03:30N 29°58' W 093°51'0 0.0
2018-Feb-12 03:00N 29°58' W 093°51'0 0.0
2018-Feb-12 02:30N 29°58' W 093°51'0 0.0
2018-Feb-12 02:00N 29°58' W 093°51'0 0.0
2018-Feb-12 01:30N 29°58' W 093°51'4 7.5
2018-Feb-12 01:00N 29°59' W 093°55'1 1.9
2018-Feb-12 00:30N 29°60' W 093°57'0 0.2
2018-Feb-12 00:00N 29°60' W 093°57'0 0.1
2018-Feb-11 23:30N 29°60' W 093°57'2 3.4
2018-Feb-11 23:00N 30°01' W 093°58'2 3.1
2018-Feb-11 22:30N 30°01' W 093°60'1 2.2
2018-Feb-11 22:00N 30°01' W 093°58'1 2.6
2018-Feb-11 21:30N 30°00' W 093°57'2 4.8
2018-Feb-11 21:00N 30°01' W 093°60'0 0.7
2018-Feb-11 20:26N 30°01' W 094°00'3 6.2
2018-Feb-11 20:00N 30°03' W 094°02'3 6.8
2018-Feb-11 19:30N 30°05' W 094°05'0 0.1
2018-Feb-11 18:59N 30°05' W 094°05'2 5.0
2018-Feb-11 18:30N 30°04' W 094°03'4 8.3
2018-Feb-11 18:00N 30°01' W 093°60'4 8.0
2018-Feb-11 17:30N 29°59' W 093°55'4 6.5
2018-Feb-11 16:58N 29°58' W 093°51'2 4.5
2018-Feb-11 16:30N 29°59' W 093°54'4 8.5
2018-Feb-11 16:00N 30°01' W 093°58'0 0.0
2018-Feb-11 15:30N 30°01' W 093°58'0 0.0
2018-Feb-11 15:00N 30°01' W 093°58'0 0.0
2018-Feb-11 14:30N 30°01' W 093°58'0 0.0
2018-Feb-11 14:00N 30°01' W 093°58'0 0.0
2018-Feb-11 13:30N 30°01' W 093°58'0 0.0
2018-Feb-11 13:00N 30°01' W 093°58'0 0.0
2018-Feb-11 12:30N 30°01' W 093°58'0 0.0
2018-Feb-11 12:00N 30°01' W 093°58'0 0.0
2018-Feb-11 11:30N 30°01' W 093°58'0 0.0
2018-Feb-11 11:00N 30°01' W 093°58'0 0.0
2018-Feb-11 10:30N 30°01' W 093°58'0 0.0
2018-Feb-11 10:00N 30°01' W 093°58'0 0.0
2018-Feb-11 09:30N 30°01' W 093°58'0 0.0
2018-Feb-11 09:00N 30°01' W 093°58'0 0.0
2018-Feb-11 08:30N 30°01' W 093°58'0 0.0
2018-Feb-11 08:00N 30°01' W 093°58'0 0.0
2018-Feb-11 07:30N 30°01' W 093°58'0 0.0
2018-Feb-11 07:00N 30°01' W 093°58'0 0.0
2018-Feb-11 06:30N 30°01' W 093°58'1 2.8
2018-Feb-11 06:00N 30°01' W 093°60'2 4.0
2018-Feb-11 05:30N 30°01' W 093°57'4 8.3
2018-Feb-11 05:00N 29°59' W 093°53'2 3.3
2018-Feb-11 04:30N 29°58' W 093°51'0 0.0
2018-Feb-11 04:00N 29°58' W 093°51'0 0.0
2018-Feb-11 03:30N 29°58' W 093°51'0 0.0
2018-Feb-11 03:00N 29°58' W 093°51'0 0.0
2018-Feb-11 02:31N 29°58' W 093°51'0 0.0
2018-Feb-11 01:59N 29°58' W 093°51'0 0.0
2018-Feb-11 01:31N 29°58' W 093°51'0 0.0
2018-Feb-11 00:59N 29°58' W 093°51'0 0.0
2018-Feb-11 00:30N 29°58' W 093°51'0 0.0
2018-Feb-11 00:01N 29°58' W 093°51'0 0.0
2018-Feb-10 23:30N 29°58' W 093°51'0 0.0
2018-Feb-10 23:00N 29°58' W 093°51'0 0.0
2018-Feb-10 22:30N 29°58' W 093°51'0 0.0
2018-Feb-10 22:01N 29°58' W 093°51'0 0.0
2018-Feb-10 21:29N 29°58' W 093°51'0 0.0
2018-Feb-10 21:01N 29°58' W 093°51'0 0.0
2018-Feb-10 20:31N 29°58' W 093°51'0 0.0
2018-Feb-10 20:00N 29°58' W 093°51'0 0.0
2018-Feb-10 19:30N 29°58' W 093°51'0 0.0
2018-Feb-10 19:01N 29°58' W 093°51'0 0.0
2018-Feb-10 18:30N 29°58' W 093°51'0 0.0
2018-Feb-10 18:01N 29°58' W 093°51'0 0.0
2018-Feb-10 17:30N 29°58' W 093°51'0 0.0
2018-Feb-10 16:58N 29°58' W 093°51'0 0.0
2018-Feb-10 16:30N 29°58' W 093°51'0 0.0
2018-Feb-10 16:01N 29°58' W 093°51'0 0.0
2018-Feb-10 15:30N 29°58' W 093°51'0 0.0
2018-Feb-10 15:00N 29°58' W 093°51'0 0.0
2018-Feb-10 14:30N 29°58' W 093°51'0 0.0
2018-Feb-10 14:01N 29°58' W 093°51'0 0.0
2018-Feb-10 13:30N 29°58' W 093°51'0 0.0
2018-Feb-10 13:00N 29°58' W 093°51'0 0.0
2018-Feb-10 12:30N 29°58' W 093°51'0 0.0
2018-Feb-10 12:00N 29°58' W 093°51'0 0.0
2018-Feb-10 11:30N 29°58' W 093°51'0 0.0
2018-Feb-10 11:00N 29°58' W 093°51'0 0.0
2018-Feb-10 10:30N 29°58' W 093°51'0 0.0
2018-Feb-10 10:01N 29°58' W 093°51'0 0.0
2018-Feb-10 09:30N 29°58' W 093°51'0 0.0
2018-Feb-10 09:00N 29°58' W 093°51'0 0.0
2018-Feb-10 08:30N 29°58' W 093°51'0 0.0
2018-Feb-10 08:00N 29°58' W 093°51'0 0.0
2018-Feb-10 07:30N 29°58' W 093°51'0 0.0
2018-Feb-10 06:59N 29°58' W 093°51'0 0.0
2018-Feb-10 06:29N 29°58' W 093°51'0 0.0
2018-Feb-10 06:00N 29°58' W 093°51'0 0.0
2018-Feb-10 05:31N 29°58' W 093°51'1 1.6
2018-Feb-10 05:00N 29°59' W 093°52'5 9.3
2018-Feb-10 04:30N 29°60' W 093°57'3 5.8
2018-Feb-10 04:00N 30°01' W 094°00'0 0.0
2018-Feb-10 03:30N 30°01' W 094°00'0 0.0
2018-Feb-10 03:00N 30°01' W 094°00'0 0.6
2018-Feb-10 02:30N 30°01' W 093°60'0 0.7
2018-Feb-10 02:00N 30°01' W 093°60'0 0.3
2018-Feb-10 01:30N 30°01' W 093°60'1 2.7
2018-Feb-10 01:00N 30°01' W 093°58'0 0.0
2018-Feb-10 00:30N 30°01' W 093°58'0 0.0
2018-Feb-10 00:00N 30°01' W 093°58'0 0.0
2018-Feb-09 23:30N 30°01' W 093°58'0 0.0
2018-Feb-09 23:00N 30°01' W 093°58'0 0.0
2018-Feb-09 22:46N 30°01' W 093°58'1 1.7
2018-Feb-09 22:00N 29°60' W 093°57'1 1.3
2018-Feb-09 21:30N 29°60' W 093°56'0 0.0
2018-Feb-09 21:00N 29°60' W 093°56'2 3.9
2018-Feb-09 20:30N 30°01' W 093°58'0 0.0
2018-Feb-09 20:00N 30°01' W 093°58'0 0.0
2018-Feb-09 19:30N 30°01' W 093°58'0 0.0
2018-Feb-09 19:00N 30°01' W 093°58'4 3.7
2018-Feb-09 18:00N 30°02' W 094°02'0 0.1
2018-Feb-09 17:30N 30°02' W 094°02'4 3.8
2018-Feb-09 16:30N 30°05' W 094°05'0 0.2
2018-Feb-09 15:30N 30°05' W 094°05'0 0.0
2018-Feb-09 15:00N 30°05' W 094°05'0 0.0
2018-Feb-09 14:30N 30°05' W 094°05'0 0.0
2018-Feb-09 14:00N 30°05' W 094°05'0 0.0
2018-Feb-09 12:30N 30°05' W 094°05'0 0.2
2018-Feb-09 11:00N 30°05' W 094°05'1 2.5
2018-Feb-09 10:30N 30°04' W 094°03'0 0.0
2018-Feb-09 10:00N 30°04' W 094°03'5 3.2
2018-Feb-09 08:30N 30°01' W 093°60'0 0.1
2018-Feb-09 07:30N 30°01' W 093°60'2 3.6
2018-Feb-09 07:00N 30°01' W 093°58'2 3.1
2018-Feb-09 06:30N 29°60' W 093°56'0 0.0
2018-Feb-09 06:00N 29°60' W 093°57'0 0.0
2018-Feb-09 05:30N 29°60' W 093°56'0 0.0
2018-Feb-09 05:00N 29°60' W 093°56'0 0.0
2018-Feb-09 04:30N 29°60' W 093°57'0 0.0
2018-Feb-09 04:00N 29°60' W 093°56'0 0.0
2018-Feb-09 03:30N 29°60' W 093°56'0 0.0
2018-Feb-09 03:00N 29°60' W 093°56'0 0.0
2018-Feb-09 02:30N 29°60' W 093°56'0 0.0
2018-Feb-09 01:30N 29°60' W 093°56'0 0.0
2018-Feb-09 01:00N 29°60' W 093°56'0 0.0
2018-Feb-09 00:30N 29°60' W 093°57'1 0.7
2018-Feb-08 23:30N 29°59' W 093°56'2 2.4
2018-Feb-08 22:30N 30°01' W 093°58'1 1.7
2018-Feb-08 22:00N 30°01' W 093°59'1 1.4
2018-Feb-08 21:30N 30°01' W 093°60'1 1.6
2018-Feb-08 21:00N 30°01' W 094°01'  

Dump ship's entire track history